createdAt,value
2023-05-06T00:01:33.750Z,68.43
2023-05-06T00:05:11.308Z,67.75
2023-05-06T00:08:49.384Z,68.29
2023-05-06T00:12:26.501Z,68.06
2023-05-06T00:16:04.351Z,68.20
2023-05-06T00:19:42.562Z,68.41
2023-05-06T00:26:57.034Z,67.89
2023-05-06T00:30:36.363Z,68.57
2023-05-06T00:34:12.258Z,68.67
2023-05-06T00:38:10.308Z,69.06
2023-05-06T00:45:07.653Z,69.25
2023-05-06T00:48:44.978Z,70.15
2023-05-06T00:52:21.084Z,69.99
2023-05-06T00:55:58.484Z,69.41
2023-05-06T00:59:36.051Z,69.59
2023-05-06T01:03:13.941Z,69.07
2023-05-06T01:07:19.314Z,69.71
2023-05-06T01:10:52.680Z,66.98
2023-05-06T01:14:06.835Z,65.36
2023-05-06T01:18:10.292Z,64.76
2023-05-06T01:21:23.271Z,63.38
2023-05-06T01:24:59.989Z,64.34
2023-05-06T01:28:37.446Z,64.23
2023-05-06T01:32:22.138Z,65.30
2023-05-06T01:36:33.213Z,64.72
2023-05-06T01:39:50.503Z,66.11
2023-05-06T01:43:34.327Z,65.85
2023-05-06T01:47:07.407Z,65.43
2023-05-06T01:50:42.548Z,65.45
2023-05-06T01:54:21.588Z,65.33
2023-05-06T01:57:57.212Z,64.98
2023-05-06T02:01:34.769Z,66.38
2023-05-06T02:05:12.945Z,66.81
2023-05-06T02:08:50.382Z,65.82
2023-05-06T02:12:27.714Z,66.26
2023-05-06T02:16:06.050Z,67.62
2023-05-06T02:19:42.947Z,67.63
2023-05-06T02:23:21.119Z,67.32
2023-05-06T02:26:58.753Z,67.37
2023-05-06T02:30:36.963Z,67.05
2023-05-06T02:34:13.699Z,67.78
2023-05-06T02:37:51.629Z,66.51
2023-05-06T02:41:29.223Z,67.04
2023-05-06T02:45:07.992Z,66.90
2023-05-06T02:48:44.464Z,67.89
2023-05-06T02:52:22.222Z,66.38
2023-05-06T02:55:59.654Z,66.15
2023-05-06T02:59:37.569Z,66.57
2023-05-06T03:03:15.128Z,67.61
2023-05-06T03:06:53.007Z,66.66
2023-05-06T03:10:31.551Z,65.72
2023-05-06T03:14:08.345Z,66.31
2023-05-06T03:17:47.773Z,65.77
2023-05-06T03:21:23.820Z,66.90
2023-05-06T03:28:39.096Z,66.63
2023-05-06T03:32:16.492Z,66.86
2023-05-06T03:35:54.181Z,66.36
2023-05-06T03:39:31.859Z,65.97
2023-05-06T03:43:28.556Z,66.76
2023-05-06T03:46:47.277Z,65.72
2023-05-06T03:50:24.640Z,65.85
2023-05-06T03:54:03.801Z,67.08
2023-05-06T03:57:40.608Z,64.95
2023-05-06T04:01:18.379Z,65.03
2023-05-06T04:04:56.088Z,64.14
2023-05-06T04:08:33.597Z,65.04
2023-05-06T04:12:11.549Z,65.89
2023-05-06T04:15:49.943Z,65.09
2023-05-06T04:19:27.051Z,66.37
2023-05-06T04:23:03.960Z,65.43
2023-05-06T04:26:42.735Z,64.11
2023-05-06T04:30:21.061Z,63.80
2023-05-06T04:33:56.834Z,64.13
2023-05-06T04:37:34.635Z,63.88
2023-05-06T04:41:12.596Z,63.66
2023-05-06T04:44:50.342Z,62.59
2023-05-06T04:48:27.699Z,62.86
2023-05-06T04:52:05.806Z,62.27
2023-05-06T04:55:43.577Z,62.64
2023-05-06T04:59:20.997Z,61.33
2023-05-06T05:02:58.684Z,61.71
2023-05-06T05:06:36.214Z,60.88
2023-05-06T05:10:13.723Z,61.56
2023-05-06T05:13:51.623Z,60.76
2023-05-06T05:17:29.855Z,60.80
2023-05-06T05:21:07.000Z,59.77
2023-05-06T05:24:44.445Z,59.29
2023-05-06T05:28:22.256Z,58.55
2023-05-06T05:32:00.355Z,59.32
2023-05-06T05:35:37.505Z,59.21
2023-05-06T05:39:15.418Z,59.06
2023-05-06T05:42:52.854Z,58.23
2023-05-06T05:46:30.569Z,59.03
2023-05-06T05:50:08.783Z,58.96
2023-05-06T05:53:45.853Z,58.17
2023-05-06T05:57:23.460Z,57.98
2023-05-06T06:01:01.960Z,59.44
2023-05-06T06:04:38.873Z,61.05
2023-05-06T06:08:19.049Z,61.98
2023-05-06T06:11:55.050Z,62.21
2023-05-06T06:15:31.921Z,59.93
2023-05-06T06:19:09.907Z,61.83
2023-05-06T06:22:47.456Z,62.71
2023-05-06T06:26:24.626Z,62.42
2023-05-06T06:30:03.254Z,61.76
2023-05-06T06:33:40.079Z,62.51
2023-05-06T06:37:18.431Z,62.70
2023-05-06T06:40:55.408Z,62.14
2023-05-06T06:44:36.226Z,62.86
2023-05-06T06:48:11.751Z,62.51
2023-05-06T06:51:48.508Z,63.08
2023-05-06T06:55:26.266Z,62.87
2023-05-06T06:59:04.155Z,62.54
2023-05-06T07:02:41.491Z,62.79
2023-05-06T07:06:18.955Z,61.83
2023-05-06T07:09:58.058Z,61.48
2023-05-06T07:13:34.448Z,60.99
2023-05-06T07:17:12.218Z,61.54
2023-05-06T07:20:50.109Z,61.06
2023-05-06T07:24:27.844Z,60.38
2023-05-06T07:28:05.838Z,59.73
2023-05-06T07:31:43.305Z,59.67
2023-05-06T07:35:20.566Z,58.86
2023-05-06T07:38:57.841Z,59.29
2023-05-06T07:42:56.689Z,59.37
2023-05-06T07:46:13.612Z,58.49
2023-05-06T07:49:51.308Z,58.64
2023-05-06T07:53:28.966Z,58.85
2023-05-06T07:57:06.187Z,58.53
2023-05-06T08:00:45.336Z,59.20
2023-05-06T08:04:22.159Z,59.51
2023-05-06T08:07:59.630Z,58.23
2023-05-06T08:11:37.179Z,58.57
2023-05-06T08:15:15.196Z,58.90
2023-05-06T08:18:52.304Z,57.94
2023-05-06T08:22:30.747Z,57.41
2023-05-06T08:26:08.067Z,58.19
2023-05-06T08:29:46.064Z,58.29
2023-05-06T08:33:23.087Z,57.80
2023-05-06T08:37:02.680Z,56.88
2023-05-06T08:40:45.473Z,56.71
2023-05-06T08:44:19.392Z,55.57
2023-05-06T08:47:53.751Z,56.49
2023-05-06T08:51:33.873Z,56.89
2023-05-06T08:55:10.342Z,56.26
2023-05-06T08:58:49.666Z,55.78
2023-05-06T09:02:25.499Z,55.94
2023-05-06T09:06:02.643Z,56.01
2023-05-06T09:09:40.036Z,56.14
2023-05-06T09:13:20.047Z,56.25
2023-05-06T09:16:55.398Z,57.21
2023-05-06T09:20:40.457Z,57.34
2023-05-06T09:24:12.610Z,58.86
2023-05-06T09:27:48.456Z,58.50
2023-05-06T09:31:29.047Z,59.44
2023-05-06T09:35:04.228Z,59.19
2023-05-06T09:38:41.718Z,59.69
2023-05-06T09:42:19.216Z,60.60
2023-05-06T09:45:58.105Z,61.22
2023-05-06T09:49:34.514Z,61.12
2023-05-06T09:53:13.761Z,61.32
2023-05-06T09:56:50.810Z,62.00
2023-05-06T10:00:30.262Z,62.38
2023-05-06T10:04:10.304Z,62.06
2023-05-06T10:07:43.075Z,62.53
2023-05-06T10:11:22.137Z,62.81
2023-05-06T10:14:58.366Z,62.87
2023-05-06T10:18:39.111Z,64.34
2023-05-06T10:22:45.645Z,63.62
2023-05-06T10:25:56.295Z,64.75
2023-05-06T10:29:29.690Z,65.14
2023-05-06T10:33:11.614Z,65.15
2023-05-06T10:36:46.096Z,66.04
2023-05-06T10:40:23.480Z,66.33
2023-05-06T10:44:00.358Z,66.49
2023-05-06T10:47:56.091Z,65.57
2023-05-06T10:51:17.874Z,65.90
2023-05-06T10:54:52.765Z,66.07
2023-05-06T10:58:36.619Z,66.15
2023-05-06T11:02:09.493Z,65.78
2023-05-06T11:05:50.304Z,65.98
2023-05-06T11:09:26.961Z,65.17
2023-05-06T11:13:23.598Z,65.90
2023-05-06T11:16:59.196Z,65.97
2023-05-06T11:20:25.748Z,66.47
2023-05-06T11:23:54.286Z,66.13
2023-05-06T11:27:32.646Z,66.17
2023-05-06T11:31:13.521Z,65.79
2023-05-06T11:34:47.627Z,66.52
2023-05-06T11:38:26.590Z,66.43
2023-05-06T11:42:04.769Z,66.40
2023-05-06T11:45:46.405Z,67.27
2023-05-06T11:49:18.071Z,67.14
2023-05-06T11:52:55.915Z,67.75
2023-05-06T11:56:53.766Z,66.84
2023-05-06T12:00:13.677Z,66.85
2023-05-06T12:03:48.890Z,67.35
2023-05-06T12:07:26.425Z,67.36
2023-05-06T12:11:09.177Z,66.51
2023-05-06T12:14:41.880Z,67.27
2023-05-06T12:18:19.886Z,66.75
2023-05-06T12:22:13.906Z,67.42
2023-05-06T12:25:35.098Z,67.15
2023-05-06T12:29:32.377Z,67.01
2023-05-06T12:33:11.612Z,66.73
2023-05-06T12:36:28.128Z,66.34
2023-05-06T12:40:08.275Z,66.82
2023-05-06T12:43:43.369Z,66.50
2023-05-06T12:47:23.849Z,65.94
2023-05-06T12:50:58.546Z,65.94
2023-05-06T12:54:37.336Z,65.48
2023-05-06T12:58:20.753Z,65.60
2023-05-06T13:01:51.348Z,65.18
2023-05-06T13:06:02.948Z,64.82
2023-05-06T13:09:07.392Z,64.81
2023-05-06T13:12:44.355Z,64.87
2023-05-06T13:16:22.111Z,64.99
2023-05-06T13:19:59.669Z,64.91
2023-05-06T13:23:38.192Z,64.67
2023-05-06T13:27:14.920Z,64.07
2023-05-06T13:30:52.857Z,63.84
2023-05-06T13:34:30.602Z,64.17
2023-05-06T13:38:08.063Z,64.55
2023-05-06T13:41:50.425Z,64.47
2023-05-06T13:45:23.588Z,64.29
2023-05-06T13:49:01.133Z,64.33
2023-05-06T13:56:16.397Z,63.65
2023-05-06T13:59:54.068Z,64.58
2023-05-06T14:07:09.342Z,63.96
2023-05-06T14:10:47.389Z,63.69
2023-05-06T14:14:24.693Z,63.92
2023-05-06T14:18:02.912Z,63.57
2023-05-06T14:21:40.560Z,63.26
2023-05-06T14:25:18.015Z,63.62
2023-05-06T14:28:55.222Z,63.39
2023-05-06T14:32:33.938Z,62.85
2023-05-06T14:36:10.612Z,63.02
2023-05-06T14:39:48.971Z,63.11
2023-05-06T14:43:26.354Z,63.45
2023-05-06T14:47:06.187Z,63.46
2023-05-06T14:50:42.388Z,63.58
2023-05-06T14:54:19.513Z,63.82
2023-05-06T14:57:57.792Z,63.51
2023-05-06T15:01:34.727Z,63.32
2023-05-06T15:05:13.812Z,63.03
2023-05-06T15:08:50.130Z,62.93
2023-05-06T15:12:27.732Z,63.03
2023-05-06T15:16:05.998Z,62.94
2023-05-06T15:19:42.977Z,62.72
2023-05-06T15:23:21.389Z,62.54
2023-05-06T15:26:58.750Z,62.60
2023-05-06T15:30:38.001Z,62.34
2023-05-06T15:34:14.706Z,62.65
2023-05-06T15:37:58.504Z,62.77
2023-05-06T15:41:33.693Z,62.87
2023-05-06T15:45:07.813Z,62.96
2023-05-06T15:48:46.253Z,62.88
2023-05-06T15:52:23.111Z,62.99
2023-05-06T15:56:13.220Z,63.25
2023-05-06T15:59:37.685Z,63.48
2023-05-06T16:03:15.448Z,63.64
2023-05-06T16:06:53.213Z,63.45
2023-05-06T16:10:31.210Z,63.50
2023-05-06T16:14:08.286Z,63.62
2023-05-06T16:17:46.465Z,63.59
2023-05-06T16:21:24.288Z,63.76
2023-05-06T16:25:01.329Z,63.83
2023-05-06T16:28:40.077Z,63.79
2023-05-06T16:35:54.802Z,64.49
2023-05-06T16:39:31.707Z,64.59
2023-05-06T16:43:09.932Z,64.54
2023-05-06T16:46:47.290Z,64.77
2023-05-06T16:50:25.251Z,65.11
2023-05-06T16:54:03.486Z,65.09
2023-05-06T16:57:40.283Z,65.10
2023-05-06T17:01:36.781Z,65.36
2023-05-06T17:04:55.954Z,65.63
2023-05-06T17:08:36.328Z,65.51
2023-05-06T17:12:11.139Z,65.68
2023-05-06T17:15:48.786Z,65.93
2023-05-06T17:19:28.088Z,66.16
2023-05-06T17:23:04.089Z,66.12
2023-05-06T17:26:42.105Z,66.19
2023-05-06T17:33:57.832Z,66.57
2023-05-06T17:37:36.189Z,66.97
2023-05-06T17:41:12.405Z,67.15
2023-05-06T17:44:49.868Z,67.21
2023-05-06T17:48:27.556Z,67.46
2023-05-06T17:52:05.411Z,67.87
2023-05-06T17:55:43.388Z,67.71
2023-05-06T17:59:21.289Z,67.98
2023-05-06T18:02:59.550Z,68.15
2023-05-06T18:06:35.965Z,68.41
2023-05-06T18:10:14.439Z,68.97
2023-05-06T18:13:51.415Z,69.25
2023-05-06T18:17:29.702Z,69.28
2023-05-06T18:24:44.585Z,69.52
2023-05-06T18:28:22.548Z,69.80
2023-05-06T18:32:00.589Z,69.97
2023-05-06T18:35:37.441Z,70.14
2023-05-06T18:39:15.182Z,70.27
2023-05-06T18:42:53.539Z,70.67
2023-05-06T18:46:31.122Z,70.90
2023-05-06T18:50:08.939Z,70.92
2023-05-06T18:53:45.951Z,71.76
2023-05-06T18:57:24.512Z,71.95
2023-05-06T19:01:04.891Z,71.87
2023-05-06T19:04:39.079Z,72.32
2023-05-06T19:08:16.541Z,72.20
2023-05-06T19:11:54.809Z,72.51
2023-05-06T19:15:31.691Z,72.43
2023-05-06T19:19:09.668Z,72.66
2023-05-06T19:22:47.204Z,73.01
2023-05-06T19:26:25.094Z,73.52
2023-05-06T19:30:02.822Z,73.82
2023-05-06T19:33:42.858Z,73.76
2023-05-06T19:37:17.908Z,73.98
2023-05-06T19:40:56.610Z,73.97
2023-05-06T19:44:33.786Z,74.42
2023-05-06T19:48:13.108Z,74.39
2023-05-06T19:51:48.694Z,74.58
2023-05-06T19:55:26.387Z,74.55
2023-05-06T19:59:03.853Z,74.97
2023-05-06T20:02:41.893Z,75.77
2023-05-06T20:06:19.253Z,76.53
2023-05-06T20:09:57.296Z,76.99
2023-05-06T20:13:34.907Z,77.69
2023-05-06T20:17:12.316Z,77.82
2023-05-06T20:20:49.894Z,77.83
2023-05-06T20:24:29.764Z,78.14
2023-05-06T20:28:06.871Z,78.38
2023-05-06T20:31:47.259Z,78.90
2023-05-06T20:35:20.464Z,79.03
2023-05-06T20:38:58.094Z,79.07
2023-05-06T20:42:36.242Z,79.50
2023-05-06T20:46:13.967Z,79.40
2023-05-06T20:49:51.385Z,79.71
2023-05-06T20:53:29.168Z,79.57
2023-05-06T20:57:06.636Z,79.82
2023-05-06T21:00:44.675Z,79.96
2023-05-06T21:04:22.090Z,80.66
2023-05-06T21:08:00.938Z,80.98
2023-05-06T21:11:37.142Z,80.75
2023-05-06T21:15:16.367Z,81.04
2023-05-06T21:18:52.762Z,81.09
2023-05-06T21:22:31.102Z,81.36
2023-05-06T21:26:08.439Z,81.44
2023-05-06T21:29:46.162Z,81.58
2023-05-06T21:33:23.551Z,81.78
2023-05-06T21:37:01.133Z,82.02
2023-05-06T21:40:38.797Z,81.76
2023-05-06T21:44:17.149Z,82.02
2023-05-06T21:47:54.157Z,82.30
2023-05-06T21:51:34.028Z,81.91
2023-05-06T21:55:09.986Z,82.19
2023-05-06T21:58:47.160Z,81.89
2023-05-06T22:02:24.902Z,82.31
2023-05-06T22:06:04.204Z,82.22
2023-05-06T22:09:40.215Z,82.39
2023-05-06T22:13:18.084Z,81.82
2023-05-06T22:16:55.673Z,82.14
2023-05-06T22:20:33.534Z,81.66
2023-05-06T22:24:12.973Z,82.35
2023-05-06T22:27:48.374Z,81.95
2023-05-06T22:31:26.733Z,81.41
2023-05-06T22:35:04.482Z,80.99
2023-05-06T22:38:43.673Z,80.62
2023-05-06T22:42:20.577Z,80.09
2023-05-06T22:45:57.212Z,79.03
2023-05-06T22:49:36.533Z,78.33
2023-05-06T22:53:15.409Z,76.62
2023-05-06T22:56:50.284Z,75.34
2023-05-06T23:00:28.268Z,73.20
2023-05-06T23:04:05.361Z,72.56
2023-05-06T23:07:43.239Z,72.17
2023-05-06T23:11:20.867Z,72.03
2023-05-06T23:14:58.290Z,72.51
2023-05-06T23:18:36.812Z,72.03
2023-05-06T23:22:13.282Z,71.56
2023-05-06T23:25:51.653Z,71.38
2023-05-06T23:29:29.150Z,70.58
2023-05-06T23:33:07.885Z,70.57
2023-05-06T23:36:44.522Z,70.80
2023-05-06T23:40:22.089Z,70.42
2023-05-06T23:43:59.516Z,71.01
2023-05-06T23:47:37.173Z,70.94
2023-05-06T23:51:15.283Z,71.37
2023-05-06T23:54:52.326Z,71.52
2023-05-06T23:58:30.519Z,71.97
